Madison, WI

10:45 AM CST on December 10, 2016 (GMT -0600)
Atmospheric, Oceanic and Space Sciences Building | | Change Station
Active Advisory: Winter Storm Watch

Elev 896 ft 43.07 °N, 89.41 °W | Updated 5 minutes ago

Partly Cloudy
Partly Cloudy
15.7 °F
Feels Like 9 °F
N
3.9
Wind Variable Wind from West

Today
High -- | Low -- °F
--% Chance of Precip.
Yesterday
High -- | Low -- °F
Precip. -- in
Pressure 30.53 in
Visibility 10.0 miles
Clouds Few 1900 ft
Scattered Clouds 18000 ft
Mostly Cloudy 25000 ft
Windchill 9 °F
Dew Point 8 °F
Humidity 69%
Rainfall 0.00 in
Snow Depth Not available.
7:18 AM 4:22 PM
Waxing Gibbous, 84% visible
METAR KMSN 101553Z 29006KT 10SM FEW019 SCT180 BKN250 M09/M14 A3048 RMK AO2 SLP338 T10891139
Pressure 30.53 in
Visibility 10.0 miles
Clouds Few 1900 ft
Scattered Clouds 18000 ft
Mostly Cloudy 25000 ft
Windchill 9 °F
Dew Point 8 °F
Humidity 69%
Rainfall 0.00 in
Snow Depth Not available.
7:18 AM 4:22 PM
Waxing Gibbous, 84% visible
METAR KMSN 101553Z 29006KT 10SM FEW019 SCT180 BKN250 M09/M14 A3048 RMK AO2 SLP338 T10891139

10-Day Weather Forecast

Almanac

Astronomy

Dec. 10, 2016 Rise Set
Actual Time
Civil Twilight
Nautical Twilight
Astronomical Twilight
Moon
Length of Visible Light
Length of Day
Tomorrow will be .
, % of the Moon is Illuminated

Today's Extremes

State Highs State Lows

Community

WunderPhotos

Upload Photos

1,956,569 photos uploaded!

WunderBlog® & News

Nearby

Air Quality

  Air Quality AQ Index Pollutant
Not available.

Snow Depth

Station Depth Elevation

Earthquake Activity

City Distance Mag. Time & Date
Minimum magnitude displayed is 2.5.

Coastal Water Temperatures

Place Temperature

Stations

Nearby Weather Stations

Station Location Temp. Windchill Dew Point Humidity Wind Precip. Elev Updated Type
                   

Watches & Warnings

Winter Storm Watch
Issued: 9:48 AM CST Dec. 10, 2016 – National Weather Service

... Winter Storm Watch remains in effect from 6 PM CST this
evening through Sunday evening...

A Winter Storm Watch remains in effect from 6 PM CST this evening
through Sunday evening.

* Timing... accumulating snow will develop late this afternoon or
evening and last into Sunday evening.

* Snow accumulations... total snow accumulations of 6 to 9 inches
are looking likely.

* Winds / visibilities... southeast winds 10 to 15 mph with gusts
to 20 mph causing drifting snow. Gusts to 25 mph are possible by
the Lakeshore causing areas of blowing snow. Visibility in snow
as low as one half mile and possibly as low as one quarter mile.

* Impacts... hazardous travel conditions developing tonight...
continuing into Sunday.

Precautionary/preparedness actions...

A Winter Storm Watch means there is a potential for significant
snow... sleet... or ice accumulations that may impact travel.
Continue to monitor the latest forecasts.